AREA preflight bulletin
Updated "live" 22 Nov 2017, 21:48

back to the map




METAR og TAF


THULE (MIL)
  AKTUEL BGTL 222058Z AUTO 09013G36KT 9999 CLR M04/M12 A3039 RMK AO2 PK WND 14036/49 SLP279 T10371120 50007=
  TAF 24 timer BGTL 222135Z 2221/2324 09015G25KT 9999 FEW200 QNH3031INS WND 080V160 TEMPO 2221/2224 12020G32KT 520006 BECMG 2305/2306 10009KT 9999 SKC QNH3007INS WND 090V160 TXM05/2221Z TNM20/2318Z LAST NO AMDS AFT 2221 NEXT 2302=

QAANAAQ
  AKTUEL BGQQ 222120Z AUTO 32003KT 9999NDV NCD M11/M19 Q1031=
  TAF 9 timer BGQQ 221858Z 2218/2220 CNL=

UPERNAVIK
  AKTUEL BGUK 222120Z AUTO 07010KT 9999NDV NCD M06/M14 Q1030=
  TAF 9 timer BGUK 221457Z 2215/2221 VRB05KT 9999 SCT200 PROB40 2215/2221 07015KT DRSN=

ILULISSAT
  AKTUEL BGJN 222050Z 06015KT 030V090 9999 DRSN FEW060 M08/M21 Q1029=
  TAF 9 timer BGJN 221718Z 2218/2222 09022KT 9999 DRSN FEW060 SCT200 TEMPO 2218/2222 08020G35KT=

KANGERLUSSUAQ
  AKTUEL BGSF 222120Z AUTO 06008KT 9999NDV NCD M15/M19 Q1028=
  TAF 24 timer BGSF 221658Z 2218/2324 06010KT 9999 FEW040 SCT060 TEMPO 2218/2324 BKN035=


SIGMETS:

Ingen SIGMET fundet:

SNOWTAM:

ICAO
BGQQ (QAANAAQ)

valid from:
1711221155

Notam_id:
0053

SNOWTAM 0053 A)BGQQ B)11221155 C)17 F)8/8/8 G)4/4/4 H)4/4/5 N)8/MEDIUM-POOR R)8/MEDIUM-POOR T)RWY CONTAMINATION 100 PERCENT 4MM COMPACTED SNOW - MEASURED FRICTION COEFFICIENTS 39/37/40 TAP


ICAO
BGUK (UPERNAVIK)

valid from:
1711221417

Notam_id:
0095

SNOWTAM 0095 A)BGUK B)11221417 C)05 F)38/38/38 G)3/3/3 H)5/5/5 N)3/GOOD R)3/GOOD T)RWY CONTAMINATION 50 PERCENT 1MM RIME AND 10 PERCENT 2MM COMPACTED SNOW - MEASURED FRICTION COEFFICIENT 67/65/70 TAP


ICAO
BGJN (ILULISSAT)

valid from:
1711221028

Notam_id:
0073

SNOWTAM 0073 A)BGJN B)11221028 C)07 F)7/7/7 G)3/3/3 H)5/5/5 N)78/GOOD R)478/GOOD T)RUNWAY CONTAMINATION 10 PERCENT 3MM ICE - MEASURED FRICTION COEFFICIENTS 71/69/73 TAP


ICAO
BGSF (KANGERLUSSUAQ)

valid from:
1711221745

Notam_id:
0111

SNOWTAM 0111 A)BGSF B)11221745 C)09 F)83/83/83 G)1/1/1 H)1/2/2 N)A/83/MEDIUM B C D/83/MEDIUM R)N E W HELI-APRON/83/MEDIUM T)MEASURED FRICTION COEFFICIENTS 24/27/28 TAP, RWY CONTAMINATION 10 PERCENT 1MM OF COMPACTED OR ROLLED SNOW AND 100 PERCENT 1MM RIME OR FROST COVERED, SWEEPING IN PROGRESS



NOTAM/SNOWTAM for operationel use has to be confirmed with the
nearest AIS Briefing Office prior to a flight.

ICAO
BGTL (THULE (MIL))

FIR
BGGL

Notam_id:
BGA0541/17

valid from:
1711231100

E) AERODROME OPEN IN SUPPORT OF SCHEDULED AMC MISSION ONLY. ALL OTHER AIRCRAFT MUST ADHERE WITH PUBLISHED OPENING HOURS.

valid to:
1711231300




ICAO
BGTL (THULE (MIL))

FIR
BGGL

Notam_id:
BGA0540/17

valid from:
1711241300

E) AERODROME CLOSED

valid to:
1711242000




ICAO
BGTL (THULE (MIL))

FIR
BGGL

Notam_id:
BGA0495/17

valid from:
1711031502

E) PAPI RWY 08T OUT OF SERVICE.

valid to:
1801262000


Replacing:
BGA0475/17

ICAO
BGQQ (QAANAAQ)

FIR
BGGL

Notam_id:
BGB0775/17

valid from:
1710101723

E) SEA RESCUE SERVICE NOT AVAIABLE.

valid to:
1807161200




ICAO
BGQQ (QAANAAQ)

FIR
BGGL

Notam_id:
BGB0779/17

valid from:
1712070000

E) TRIGGER NOTAM - PERM AIP AIRAC AMDT 12/17 WEF 07 DEC 2017. NEW RNAV GNSS CIRCLING B INSTRUMENT APPROACH PROCEDURE.

valid to:
1712202359




ICAO
BGUK (UPERNAVIK)

FIR
BGGL

Notam_id:
BGB0720/17

valid from:
1709191514

E) SEA RESCUE SERVICE DOWNGRADED, DUE TO LACK OF STAFF.

valid to:
1712011500


Replacing:
BGB0671/17

ICAO
BGUK (UPERNAVIK)

FIR
BGGL

Notam_id:
BGB0722/17

valid from:
1709191702

E) SNOWREMOVAL DOWNGRADED, DUE TO LACK OF VEHICLE.

valid to:
1712311400EST


Replacing:
BGB0721/17

ICAO
BGUK (UPERNAVIK)

FIR
BGGL

Notam_id:
BGB0837/17

valid from:
1711141440

E) THR ID LIGHTS RWY 23 OUT OF SERVICE.

valid to:
1711301500EST


Replacing:
BGB0811/17

ICAO
BGGL (SONDRESTROM FIR)

FIR
BGGL

Notam_id:
BGA0491/17

valid from:
1711010602

E) CHECKLIST YEAR=2017 0269 0475 0479 LATEST PUBLICATIONS AIP AIRAC AMDT IFR 012/2017 EFFECTIVE DATE 07 DEC 17 AIP AMDT IFR 010/2017 EFFECTIVE DATE 26 OCT 17 AIP SUP IFR 004/2017 EFFECTIVE DATE 10 OCT 17 AIC IFR A002/2017 EFFECTIVE DATE 31 AUG 17

valid to:
1712010602EST


Replacing:
BGA0443/17

ICAO
BGGL (SONDRESTROM FIR)

FIR
BGGL

Notam_id:
BGB0812/17

valid from:
1711010603

E) CHECKLIST YEAR=2016 0593 YEAR=2017 0649 0650 0712 0713 0720 0722 0740 0775 0779 0780 0781 0786 0787 0789 0792 0805 0806 0808 0810 0811 LATEST PUBLICATIONS AIP AIRAC AMDT IFR 012/2017 EFFECTIVE DATE 07 DEC 17 AIP AMDT IFR 010/2017 EFFECTIVE DATE 26 OCT 17 AIP SUP IFR 004/2017 EFFECTIVE DATE 10 OCT 17 AIC IFR A002/2017 EFFECTIVE DATE 31 AUG 17

valid to:
1712010603EST


Replacing:
BGB0761/17

ICAO
BGGL (SONDRESTROM FIR)

FIR
BGGL

Notam_id:
BGC0053/17

valid from:
1711010603

E) CHECKLIST YEAR=2016 0044 YEAR=2017 0045 0050 0051 LATEST PUBLICATIONS AIP AIRAC AMDT IFR 012/2017 EFFECTIVE DATE 07 DEC 17 AIP AMDT IFR 010/2017 EFFECTIVE DATE 26 OCT 17 AIP SUP IFR 004/2017 EFFECTIVE DATE 10 OCT 17 AIC IFR A002/2017 EFFECTIVE DATE 31 AUG 17

valid to:
1712010603EST


Replacing:
BGC0049/17

ICAO
BGGL (SONDRESTROM FIR)

FIR
BGGL

Notam_id:
BGA0537/17

valid from:
1711201705

E) PRINS CHRISTIAN SUND NDB OZN FREQ 372KHZ PSN:600326N0430935W OUT OF SERVICE.

valid to:
1711241900EST


Replacing:
BGA0536/17

ICAO
BGJN (ILULISSAT)

FIR
BGGL

Notam_id:
BGB0805/17

valid from:
1710301312

E) FUELLING FACILITIES AND CAPACITY: JET A1: 300 L/MIN, WAITING TIME FOR REFUELLING CAN OCCUR. 100LL: LIMITED QUANTITIES, AVBL BY SPECIAL ARRANGEMENT ONLY. NOTE: WAITING TIME CAN OCCUR FOR JET A1 AND 100LL REFUELING.

valid to:
PERM


Replacing:
BGB0683/17

ICAO
BGSF (KANGERLUSSUAQ)

FIR
BGGL

Notam_id:
BGA0539/17

valid from:
1711211100

E) TWY D CLSD BTW SUNSET AND SUNRISE. IN SPECIAL CASES MARSHALLING CAN BE REQ.

valid to:
PERM





Copyright Naviair   2003-2016